Time;durP1;ratioP1;P1;durP2;ratioP2;P2;SDS_P1;SDS_P2;PMS_P1;PMS_P2;Temp;Humidity;BMP_temperature;BMP_pressure;BME280_temperature;BME280_humidity;BME280_pressure;Samples;Min_cycle;Max_cycle;Signal;HPM_P1;HPM_P2
2022/04/10 00:00:34;;;;;;;3.83;1.50;;;;;;;11.72;48.13;101694.34;5028772;28;20029;-51
2022/04/10 00:03:00;;;;;;;2.55;1.50;;;;;;;11.70;48.28;101701.16;5024629;28;20331;-54
2022/04/10 00:05:25;;;;;;;5.15;2.00;;;;;;;11.70;48.24;101696.88;5026492;28;20039;-54
2022/04/10 00:07:50;;;;;;;3.80;1.75;;;;;;;11.71;48.32;101697.78;5027401;28;20022;-55
2022/04/10 00:10:16;;;;;;;3.38;1.80;;;;;;;11.70;48.09;101696.00;5024526;28;20508;-54
2022/04/10 00:12:41;;;;;;;4.43;1.90;;;;;;;11.70;48.44;101701.16;5028838;28;20393;-51
2022/04/10 00:15:07;;;;;;;3.38;1.70;;;;;;;11.69;48.28;101700.28;5026862;28;20018;-54
2022/04/10 00:17:33;;;;;;;4.15;1.88;;;;;;;11.69;47.97;101702.84;5024908;28;20018;-54
2022/04/10 00:19:58;;;;;;;4.22;1.67;;;;;;;11.68;48.24;101698.53;5025212;28;20443;-52
2022/04/10 00:22:24;;;;;;;2.97;1.63;;;;;;;11.69;48.10;101707.16;5025066;28;20430;-55
2022/04/10 00:24:49;;;;;;;4.00;1.50;;;;;;;11.68;47.98;101700.22;5025752;28;20017;-55
2022/04/10 00:27:15;;;;;;;4.00;1.88;;;;;;;11.68;48.13;101695.06;5030955;28;20059;-54
2022/04/10 00:29:41;;;;;;;3.25;1.80;;;;;;;11.67;48.16;101699.34;5027927;28;20024;-55
2022/04/10 00:32:06;;;;;;;2.88;1.50;;;;;;;11.68;48.04;101705.38;5024373;28;20377;-51
2022/04/10 00:34:32;;;;;;;3.33;1.80;;;;;;;11.68;47.99;101700.22;5027702;28;20033;-54
2022/04/10 00:36:57;;;;;;;3.95;1.83;;;;;;;11.69;48.21;101699.41;5035663;28;20074;-52
2022/04/10 00:39:23;;;;;;;5.25;1.95;;;;;;;11.68;47.94;101692.47;5023214;28;20458;-51
2022/04/10 00:41:49;;;;;;;3.22;1.80;;;;;;;11.67;47.77;101695.88;5025087;28;20870;-55
2022/04/10 00:44:15;;;;;;;3.08;1.90;;;;;;;11.67;48.05;101693.28;5024857;28;20389;-55
2022/04/10 00:46:40;;;;;;;4.53;1.80;;;;;;;11.66;47.92;101686.38;5022660;28;20446;-53
2022/04/10 00:49:06;;;;;;;4.47;2.22;;;;;;;11.66;48.02;101692.41;5023088;28;20033;-54
2022/04/10 00:51:43;;;;;;;4.38;1.80;;;;;;;11.66;48.09;101688.97;5026560;28;20051;-55
2022/04/10 00:54:10;;;;;;;4.55;2.10;;;;;;;11.66;47.98;101691.56;5023410;28;20442;-55
2022/04/10 00:56:37;;;;;;;5.15;1.88;;;;;;;11.65;48.03;101684.63;5023435;28;20035;-54
2022/04/10 00:59:03;;;;;;;3.45;1.60;;;;;;;11.66;47.89;101684.66;5024079;28;20033;-55
2022/04/10 01:01:29;;;;;;;4.65;1.80;;;;;;;11.66;48.08;101688.97;5023464;28;20026;-55
2022/04/10 01:03:54;;;;;;;3.97;2.10;;;;;;;11.66;47.92;101687.25;5026350;28;20334;-55
2022/04/10 01:06:21;;;;;;;3.45;1.83;;;;;;;11.65;47.76;101684.63;5032444;28;20931;-54
2022/04/10 01:08:47;;;;;;;3.28;1.73;;;;;;;11.65;47.98;101684.63;5021231;28;20152;-55
2022/04/10 01:11:13;;;;;;;5.72;1.80;;;;;;;11.64;47.79;101682.84;5024266;28;20021;-54
2022/04/10 01:13:39;;;;;;;3.13;1.45;;;;;;;11.63;47.75;101692.31;5027904;28;20056;-54
2022/04/10 01:16:05;;;;;;;5.00;2.10;;;;;;;11.63;47.96;101687.16;5034417;28;20116;-51
2022/04/10 01:18:31;;;;;;;3.88;1.88;;;;;;;11.62;47.58;101684.47;5025043;28;20560;-55
2022/04/10 01:21:01;;;;;;;3.65;1.80;;;;;;;11.63;47.88;101688.84;5026833;28;20036;-55
2022/04/10 01:23:27;;;;;;;4.07;1.85;;;;;;;11.62;47.60;101684.47;5027547;28;20462;-55
2022/04/10 01:25:52;;;;;;;4.13;2.28;;;;;;;11.62;47.79;101687.97;5023639;28;20053;-52
2022/04/10 01:28:18;;;;;;;4.10;1.90;;;;;;;11.62;47.57;101687.06;5024270;28;20037;-55
2022/04/10 01:30:43;;;;;;;4.88;2.13;;;;;;;11.62;47.63;101693.13;5021013;28;20021;-52
2022/04/10 01:33:09;;;;;;;3.80;2.00;;;;;;;11.62;47.49;101694.81;5021614;28;20350;-55
2022/04/10 01:35:37;;;;;;;2.80;1.48;;;;;;;11.62;47.61;101695.72;5021075;28;20025;-51
2022/04/10 01:38:04;;;;;;;2.20;1.45;;;;;;;11.60;47.64;101692.19;5023845;28;20456;-55
2022/04/10 01:40:30;;;;;;;;;;;;;;;11.71;47.80;101684.88;5028872;28;21981;-55
2022/04/10 01:42:55;;;;;;;4.50;1.63;;;;;;;11.64;47.51;101695.75;5027284;28;19916;-53
2022/04/10 01:45:20;;;;;;;3.97;1.80;;;;;;;11.61;47.55;101690.50;5025126;28;20037;-56
2022/04/10 01:47:50;;;;;;;4.35;2.15;;;;;;;11.61;47.64;101698.25;5024557;28;20032;-52
2022/04/10 01:50:16;;;;;;;4.05;1.80;;;;;;;11.60;47.69;101691.31;5025003;28;20033;-52
2022/04/10 01:52:41;;;;;;;4.10;2.00;;;;;;;11.58;47.75;101701.59;5023254;28;20049;-55
2022/04/10 01:55:07;;;;;;;4.72;1.92;;;;;;;11.59;47.51;101694.69;5027119;28;20048;-54
2022/04/10 01:57:33;;;;;;;3.95;2.00;;;;;;;11.57;47.43;101697.22;5021103;28;20044;-55
2022/04/10 01:59:58;;;;;;;3.90;2.20;;;;;;;11.57;47.20;101701.50;5022723;28;20017;-55
2022/04/10 02:02:23;;;;;;;3.80;2.10;;;;;;;11.58;47.29;101708.44;5022084;28;21587;-53
2022/04/10 02:04:49;;;;;;;3.83;1.90;;;;;;;11.56;47.10;101703.22;5024578;28;20108;-53
2022/04/10 02:07:14;;;;;;;2.95;1.90;;;;;;;11.58;47.03;101711.00;5022139;28;20033;-55
2022/04/10 02:09:39;;;;;;;3.63;2.00;;;;;;;11.57;47.45;101711.81;5031725;28;20074;-55
2022/04/10 02:12:05;;;;;;;3.28;1.60;;;;;;;11.57;47.34;101720.47;5025056;28;20033;-52
2022/04/10 02:14:30;;;;;;;4.50;2.08;;;;;;;11.57;47.45;101711.81;5026229;28;20350;-55
2022/04/10 02:16:56;;;;;;;4.47;1.90;;;;;;;11.57;47.28;101711.81;5021823;28;20061;-52
2022/04/10 02:19:21;;;;;;;3.25;2.05;;;;;;;11.56;46.77;101710.09;5021994;28;20781;-53
2022/04/10 02:21:47;;;;;;;3.53;2.00;;;;;;;11.56;47.21;101712.66;5023439;28;20086;-52
2022/04/10 02:24:13;;;;;;;4.13;1.70;;;;;;;11.56;47.44;101703.22;5021016;28;20148;-55
2022/04/10 02:26:38;;;;;;;3.97;2.10;;;;;;;11.56;47.26;101705.78;5027878;28;20033;-54
2022/04/10 02:29:04;;;;;;;5.25;1.83;;;;;;;11.56;47.11;101708.38;5024013;28;20049;-55
2022/04/10 02:31:29;;;;;;;3.40;1.92;;;;;;;11.56;47.10;101712.66;5025076;28;20452;-54
2022/04/10 02:33:54;;;;;;;3.70;2.05;;;;;;;11.55;47.04;101708.31;5026532;28;20029;-53
2022/04/10 02:36:20;;;;;;;4.53;2.08;;;;;;;11.53;47.01;101722.03;5025477;28;20041;-55
2022/04/10 02:38:45;;;;;;;5.18;2.10;;;;;;;11.55;47.05;101718.66;5031547;28;20037;-52
2022/04/10 02:41:11;;;;;;;3.17;2.00;;;;;;;11.54;47.31;101712.59;5023460;28;20025;-56
2022/04/10 02:43:39;;;;;;;3.88;2.10;;;;;;;11.52;47.09;101715.09;5026064;28;21378;-52
2022/04/10 02:46:04;;;;;;;5.50;2.28;;;;;;;11.53;47.28;101714.28;5026687;28;20048;-56
2022/04/10 02:48:30;;;;;;;4.32;2.22;;;;;;;11.55;46.92;101713.47;5025853;28;20053;-55
2022/04/10 02:50:55;;;;;;;4.15;2.05;;;;;;;11.55;47.04;101724.69;5027163;28;20018;-54
2022/04/10 02:53:20;;;;;;;4.07;2.45;;;;;;;11.53;46.92;101727.22;5028636;28;20450;-55
2022/04/10 02:55:46;;;;;;;5.00;2.22;;;;;;;11.52;46.78;101725.44;5027483;28;20033;-54
2022/04/10 02:58:11;;;;;;;4.00;2.15;;;;;;;11.52;46.98;101728.00;5024291;28;20036;-51
2022/04/10 03:00:36;;;;;;;3.80;2.10;;;;;;;11.52;46.69;101730.59;5025760;28;20113;-54
2022/04/10 03:03:02;;;;;;;4.28;2.10;;;;;;;11.52;47.12;101732.31;5027047;28;20124;-55
2022/04/10 03:05:27;;;;;;;3.67;2.20;;;;;;;11.51;46.94;101728.84;5024859;28;20040;-54
2022/04/10 03:07:52;;;;;;;4.00;1.90;;;;;;;11.51;46.97;101734.00;5025891;28;20036;-55
2022/04/10 03:10:18;;;;;;;3.75;2.22;;;;;;;11.52;46.98;101740.94;5023535;28;20104;-54
2022/04/10 03:12:43;;;;;;;3.28;2.00;;;;;;;11.51;47.03;101727.97;5024208;28;20478;-55
2022/04/10 03:15:09;;;;;;;4.50;2.05;;;;;;;11.52;47.00;101737.47;5026789;28;20071;-52
2022/04/10 03:17:35;;;;;;;3.90;1.90;;;;;;;11.51;46.86;101735.72;5026286;28;20112;-54
2022/04/10 03:20:00;;;;;;;4.47;2.10;;;;;;;11.51;46.89;101734.00;5027450;28;20092;-55
2022/04/10 03:22:25;;;;;;;3.60;1.88;;;;;;;11.51;47.07;101734.00;5025842;28;20017;-54
2022/04/10 03:24:51;;;;;;;5.47;2.53;;;;;;;11.50;46.76;101731.34;5024160;28;20030;-53
2022/04/10 03:27:16;;;;;;;4.00;1.92;;;;;;;11.50;46.95;101733.94;5026745;28;20033;-55
2022/04/10 03:29:41;;;;;;;3.95;2.00;;;;;;;11.49;46.51;101740.81;5024632;28;20029;-54
2022/04/10 03:32:07;;;;;;;4.82;2.40;;;;;;;11.49;46.82;101743.41;5025089;28;20059;-54
2022/04/10 03:34:32;;;;;;;3.25;2.13;;;;;;;11.50;46.58;101746.84;5025772;28;20079;-55
2022/04/10 03:36:58;;;;;;;5.50;2.28;;;;;;;11.48;46.64;101744.22;5032806;28;20458;-54
2022/04/10 03:39:23;;;;;;;3.88;2.00;;;;;;;11.49;46.76;101745.06;5026665;28;22044;-55
2022/04/10 03:41:49;;;;;;;3.58;2.05;;;;;;;11.50;46.66;101744.25;5024655;28;20025;-54
2022/04/10 03:44:14;;;;;;;3.95;2.38;;;;;;;11.49;46.26;101753.72;5047482;28;20022;-54
2022/04/10 03:46:40;;;;;;;4.70;2.20;;;;;;;11.49;46.68;101743.41;5026129;28;20082;-53
2022/04/10 03:49:07;;;;;;;4.15;2.10;;;;;;;11.47;46.77;101745.03;5025412;28;20100;-56
2022/04/10 03:51:32;;;;;;;4.78;2.50;;;;;;;11.47;46.66;101750.19;5028359;28;20031;-56
2022/04/10 03:53:57;;;;;;;4.38;2.25;;;;;;;11.48;46.42;101753.66;5025135;28;20026;-52
2022/04/10 03:56:23;;;;;;;3.28;1.90;;;;;;;11.46;46.66;101755.28;5023150;28;20033;-54
2022/04/10 03:58:48;;;;;;;4.20;2.33;;;;;;;11.46;46.57;101755.28;5025583;28;20033;-55
2022/04/10 04:01:13;;;;;;;4.95;2.60;;;;;;;11.44;46.63;101757.81;5029231;28;20044;-54
2022/04/10 04:03:39;;;;;;;4.43;2.00;;;;;;;11.45;46.59;101757.00;5030248;28;20045;-51
2022/04/10 04:06:05;;;;;;;4.15;1.92;;;;;;;11.46;46.77;101756.16;5024865;28;20033;-56
2022/04/10 04:08:30;;;;;;;4.85;2.38;;;;;;;11.46;46.73;101766.47;5036322;28;20041;-53
2022/04/10 04:10:55;;;;;;;4.47;2.45;;;;;;;11.46;46.50;101770.78;5023750;28;20044;-53
2022/04/10 04:13:21;;;;;;;4.45;2.65;;;;;;;11.45;46.47;101766.44;5026402;28;20050;-55
2022/04/10 04:15:46;;;;;;;5.28;2.15;;;;;;;11.44;46.28;101768.16;5029205;28;20067;-51
2022/04/10 04:18:12;;;;;;;3.97;2.10;;;;;;;11.45;46.41;101775.06;5023713;28;20099;-51
2022/04/10 04:20:37;;;;;;;3.70;2.13;;;;;;;11.44;46.34;101770.72;5024204;28;20567;-52
2022/04/10 04:23:02;;;;;;;4.95;2.28;;;;;;;11.45;46.33;101774.16;5025844;28;20048;-54
2022/04/10 04:25:28;;;;;;;4.63;2.40;;;;;;;11.46;46.36;101766.47;5025509;28;20029;-55
2022/04/10 04:27:53;;;;;;;3.72;2.03;;;;;;;11.44;46.60;101769.81;5024766;28;20443;-54
2022/04/10 04:30:18;;;;;;;3.67;2.00;;;;;;;11.45;46.34;101769.00;5025682;28;20033;-55
2022/04/10 04:32:44;;;;;;;4.32;2.60;;;;;;;11.41;46.29;101772.28;5027545;28;20044;-54
2022/04/10 04:35:13;;;;;;;3.88;2.30;;;;;;;11.41;46.57;101775.75;5025894;28;20622;-54
2022/04/10 04:37:40;;;;;;;5.38;2.80;;;;;;;11.41;46.16;101778.31;5023274;28;20017;-56
2022/04/10 04:40:07;;;;;;;3.17;2.03;;;;;;;11.41;45.95;101778.31;5024982;28;20109;-55
2022/04/10 04:42:32;;;;;;;3.88;2.10;;;;;;;11.41;46.12;101770.59;5027007;28;20026;-55
2022/04/10 04:44:58;;;;;;;3.72;2.25;;;;;;;11.40;45.51;101771.41;5026551;28;20044;-55
2022/04/10 04:47:23;;;;;;;4.70;2.10;;;;;;;11.41;46.28;101778.31;5026200;28;20083;-54
2022/04/10 04:49:49;;;;;;;4.05;2.17;;;;;;;11.41;45.96;101778.31;5026383;28;20108;-51
2022/04/10 04:52:14;;;;;;;4.45;2.30;;;;;;;11.41;46.07;101786.06;5026434;28;20061;-54
2022/04/10 04:54:39;;;;;;;2.60;1.83;;;;;;;11.40;45.99;101786.91;5025311;28;20082;-53
2022/04/10 04:57:05;;;;;;;3.45;2.10;;;;;;;11.40;46.04;101781.75;5023982;28;20017;-54
2022/04/10 04:59:30;;;;;;;4.10;2.00;;;;;;;11.41;46.63;101788.66;5025416;28;20021;-54
2022/04/10 05:01:56;;;;;;;3.55;2.03;;;;;;;11.41;46.00;101783.47;5023112;28;20763;-54
2022/04/10 05:04:21;;;;;;;3.40;2.10;;;;;;;11.42;46.15;101784.38;5028922;28;20528;-54
2022/04/10 05:06:46;;;;;;;5.20;2.33;;;;;;;11.40;46.11;101792.06;5021518;28;20051;-55
2022/04/10 05:09:12;;;;;;;3.30;2.15;;;;;;;11.41;45.75;101791.22;5026905;28;20029;-54
2022/04/10 05:11:37;;;;;;;3.88;2.10;;;;;;;11.37;45.99;101797.09;5023923;28;20030;-55
2022/04/10 05:14:04;;;;;;;4.03;2.20;;;;;;;11.39;45.96;101800.63;5026131;28;20128;-55
2022/04/10 05:16:29;;;;;;;3.97;2.17;;;;;;;11.37;46.06;101794.50;5022985;28;20078;-55
2022/04/10 05:18:55;;;;;;;3.95;2.15;;;;;;;11.39;45.68;101799.72;5025666;28;20017;-54
2022/04/10 05:21:20;;;;;;;4.20;2.00;;;;;;;11.39;45.87;101808.38;5027919;28;20416;-55
2022/04/10 05:23:46;;;;;;;4.65;1.98;;;;;;;11.38;46.14;101804.03;5026044;28;20018;-54
2022/04/10 05:26:11;;;;;;;4.25;2.05;;;;;;;11.39;45.92;101810.94;5027323;28;20472;-55
2022/04/10 05:28:36;;;;;;;4.45;2.20;;;;;;;11.39;45.56;101805.78;5026190;28;20036;-55
2022/04/10 05:31:03;;;;;;;3.10;1.83;;;;;;;11.34;45.81;101807.28;5023664;28;20063;-55
2022/04/10 05:33:28;;;;;;;3.95;2.05;;;;;;;11.38;45.75;101818.63;5028155;28;20032;-55
2022/04/10 05:35:55;;;;;;;3.85;2.22;;;;;;;11.38;45.42;101818.63;5024892;28;20361;-55
2022/04/10 05:38:22;;;;;;;4.35;2.33;;;;;;;11.37;45.68;101825.47;5028144;28;20458;-55
2022/04/10 05:40:52;;;;;;;3.60;2.00;;;;;;;11.36;45.50;101819.44;5025988;28;20049;-55
2022/04/10 05:43:22;;;;;;;4.93;2.58;;;;;;;11.36;45.32;101823.72;5025039;28;20025;-55
2022/04/10 05:45:48;;;;;;;3.35;2.20;;;;;;;11.37;45.46;101830.63;5026769;28;20052;-55
2022/04/10 05:48:13;;;;;;;4.80;2.03;;;;;;;11.36;45.84;101826.28;5025106;28;20025;-55
2022/04/10 05:50:39;;;;;;;3.50;2.00;;;;;;;11.36;45.78;101840.09;5026602;28;20040;-51
2022/04/10 05:53:04;;;;;;;3.28;1.70;;;;;;;11.36;45.60;101836.63;5025237;28;20087;-55
2022/04/10 05:55:30;;;;;;;3.78;1.95;;;;;;;11.37;45.49;101838.38;5024352;28;20021;-53
2022/04/10 05:57:56;;;;;;;3.65;2.20;;;;;;;11.36;45.65;101842.69;5025595;28;20017;-55
2022/04/10 06:00:23;;;;;;;3.95;2.22;;;;;;;11.35;45.57;101846.06;5029775;28;20100;-54
2022/04/10 06:02:49;;;;;;;3.47;2.05;;;;;;;11.37;45.48;101848.72;5026515;28;20013;-55
2022/04/10 06:05:14;;;;;;;4.20;2.40;;;;;;;11.35;45.83;101861.56;5025123;28;20036;-56
2022/04/10 06:07:40;;;;;;;4.60;2.13;;;;;;;11.35;45.51;101860.69;5025737;28;20354;-53
2022/04/10 06:10:07;;;;;;;3.80;1.90;;;;;;;11.34;45.39;101864.94;5034378;28;20025;-55
2022/04/10 06:12:32;;;;;;;4.03;1.80;;;;;;;11.37;45.73;101861.63;5030117;28;20504;-55
2022/04/10 06:14:58;;;;;;;4.18;2.08;;;;;;;11.38;45.32;101865.09;5033338;28;20029;-54
2022/04/10 06:17:23;;;;;;;2.28;1.60;;;;;;;11.35;45.63;101869.31;5037055;28;20017;-55
2022/04/10 06:19:49;;;;;;;5.30;1.90;;;;;;;11.35;45.41;101876.16;5034391;28;20450;-55
2022/04/10 06:22:15;;;;;;;3.35;1.80;;;;;;;11.34;45.48;101875.28;5031275;28;20106;-55
2022/04/10 06:24:41;;;;;;;4.70;2.00;;;;;;;11.35;45.54;101876.16;5034670;28;20055;-54
2022/04/10 06:27:06;;;;;;;3.03;1.80;;;;;;;11.35;45.26;101886.50;5034202;28;20039;-52
2022/04/10 06:29:31;;;;;;;3.75;2.03;;;;;;;11.34;45.58;101879.56;5028429;28;20025;-52
2022/04/10 06:31:57;;;;;;;3.95;2.00;;;;;;;11.35;45.24;101887.38;5035329;28;20040;-54
2022/04/10 06:34:22;;;;;;;2.92;1.83;;;;;;;11.35;45.22;101881.34;5030593;28;20040;-54
2022/04/10 06:36:48;;;;;;;3.70;1.98;;;;;;;11.35;45.42;101891.66;5028664;28;20044;-52
2022/04/10 06:39:16;;;;;;;4.53;1.92;;;;;;;11.34;45.18;101898.50;5026367;28;20033;-54
2022/04/10 06:41:43;;;;;;;3.45;1.77;;;;;;;11.34;45.13;101895.06;5029268;28;20107;-51
2022/04/10 06:44:09;;;;;;;4.85;1.90;;;;;;;11.34;45.02;101895.91;5029075;28;20047;-53
2022/04/10 06:46:34;;;;;;;3.72;1.90;;;;;;;11.34;45.22;101900.22;5030218;28;20358;-55
2022/04/10 06:49:00;;;;;;;2.95;2.00;;;;;;;11.34;45.19;101900.22;5027503;28;20025;-55
2022/04/10 06:51:25;;;;;;;3.17;1.90;;;;;;;11.34;45.17;101900.22;5029283;28;20458;-52
2022/04/10 06:53:51;;;;;;;4.47;2.13;;;;;;;11.34;45.00;101906.25;5029719;28;20037;-55
2022/04/10 06:56:16;;;;;;;4.18;1.98;;;;;;;11.35;44.94;101907.16;5027593;28;20024;-55
2022/04/10 06:58:42;;;;;;;2.85;1.70;;;;;;;11.34;45.10;101905.38;5024953;28;20014;-54
2022/04/10 07:01:08;;;;;;;4.53;2.00;;;;;;;11.35;45.04;101912.31;5027563;28;20385;-54
2022/04/10 07:03:34;;;;;;;4.25;2.00;;;;;;;11.35;44.86;101912.31;5028038;28;20033;-55
2022/04/10 07:05:59;;;;;;;4.63;2.00;;;;;;;11.34;45.43;101910.53;5027745;28;20032;-55
2022/04/10 07:08:26;;;;;;;3.50;1.88;;;;;;;11.33;44.85;101916.50;5030898;28;20025;-55
2022/04/10 07:10:52;;;;;;;4.40;2.10;;;;;;;11.34;45.11;101915.69;5027845;28;20037;-55
2022/04/10 07:13:18;;;;;;;3.20;1.90;;;;;;;11.35;44.93;101927.78;5029201;28;20106;-55
2022/04/10 07:15:45;;;;;;;3.35;1.70;;;;;;;11.34;44.98;101915.69;5028718;28;20105;-55
2022/04/10 07:18:11;;;;;;;6.75;2.22;;;;;;;11.34;44.65;101924.31;5032243;28;20120;-55
2022/04/10 07:20:36;;;;;;;3.50;1.65;;;;;;;11.36;44.88;101924.38;5034407;28;20446;-55
2022/04/10 07:25:46;;;;;;;4.15;1.75;;;;;;;11.33;44.81;101919.97;5024652;28;20033;-54
2022/04/10 07:28:11;;;;;;;3.53;1.92;;;;;;;11.34;44.81;101920.84;5034296;28;20029;-52
2022/04/10 07:30:36;;;;;;;2.80;1.77;;;;;;;11.34;45.02;101926.03;5034399;28;20079;-52
2022/04/10 07:33:02;;;;;;;3.50;1.50;;;;;;;11.34;44.94;101926.03;5029832;28;20025;-54
2022/04/10 07:35:27;;;;;;;3.83;1.80;;;;;;;11.34;44.98;101932.06;5033107;28;20449;-53
2022/04/10 07:37:53;;;;;;;3.22;1.90;;;;;;;11.34;44.88;101928.59;5033421;28;20025;-55
2022/04/10 07:40:21;;;;;;;5.10;1.80;;;;;;;11.34;44.86;101944.09;5030314;28;20361;-55
2022/04/10 07:42:47;;;;;;;3.08;1.60;;;;;;;11.34;44.90;101941.50;5034086;28;20014;-52
2022/04/10 07:47:25;;;;;;;2.42;1.58;;;;;;;11.34;44.76;101949.25;5034995;28;20036;-55
2022/04/10 07:47:59;;;;;;;3.25;1.70;;;;;;;11.34;44.81;101951.81;5031226;28;20021;-55
2022/04/10 07:50:25;;;;;;;4.25;1.80;;;;;;;11.34;45.03;101942.38;5025662;28;20032;-51
2022/04/10 07:52:52;;;;;;;3.22;1.80;;;;;;;11.35;44.90;101948.44;5027134;28;20037;-55
2022/04/10 07:55:18;;;;;;;3.30;1.80;;;;;;;11.34;45.13;101950.13;5028069;28;20335;-55
2022/04/10 07:57:43;;;;;;;3.67;1.58;;;;;;;11.35;44.76;101958.75;5025969;28;20487;-53
2022/04/10 08:00:09;;;;;;;4.80;1.70;;;;;;;11.35;44.75;101964.78;5023928;28;20464;-55
2022/04/10 08:02:34;;;;;;;3.97;2.17;;;;;;;11.35;44.97;101963.94;5023963;28;20414;-55
2022/04/10 08:05:00;;;;;;;2.75;1.65;;;;;;;11.35;45.04;101962.22;5025124;28;20018;-55
2022/04/10 08:07:25;;;;;;;4.95;1.75;;;;;;;11.37;45.10;101967.44;5024091;28;20083;-55
2022/04/10 08:09:50;;;;;;;2.83;1.55;;;;;;;11.36;45.09;101970.81;5035086;28;20033;-55
2022/04/10 08:12:16;;;;;;;3.20;1.50;;;;;;;11.36;44.94;101974.31;5025637;28;20124;-55
2022/04/10 08:14:43;;;;;;;4.07;1.38;;;;;;;11.38;45.01;101974.38;5026372;28;20095;-55
2022/04/10 08:17:11;;;;;;;3.15;1.40;;;;;;;11.38;44.98;101982.13;5026894;28;20017;-55
2022/04/10 08:19:37;;;;;;;3.40;1.25;;;;;;;11.38;44.86;101981.25;5025789;28;20032;-55
2022/04/10 08:22:03;;;;;;;3.03;1.35;;;;;;;11.38;45.17;101987.28;5031075;28;20345;-55
2022/04/10 08:24:28;;;;;;;4.63;1.33;;;;;;;11.38;45.09;101983.84;5025539;28;20370;-55
2022/04/10 08:26:53;;;;;;;4.25;1.65;;;;;;;11.38;45.01;101984.69;5021793;28;20029;-55
2022/04/10 08:29:19;;;;;;;3.08;1.30;;;;;;;11.39;45.11;101990.72;5024474;28;20082;-55
2022/04/10 08:31:44;;;;;;;5.40;1.80;;;;;;;11.38;44.98;101991.56;5024612;28;20079;-53
2022/04/10 08:34:10;;;;;;;2.92;1.42;;;;;;;11.38;45.28;101992.44;5029332;28;20017;-53
2022/04/10 08:36:35;;;;;;;1.92;1.13;;;;;;;11.37;45.25;102008.75;5031243;28;20044;-54
2022/04/10 08:39:01;;;;;;;3.35;1.40;;;;;;;11.36;45.21;102009.53;5031069;28;20048;-54
2022/04/10 08:41:31;;;;;;;3.00;1.27;;;;;;;11.37;45.24;102008.75;5049708;28;20013;-52
2022/04/10 08:43:59;;;;;;;3.25;1.20;;;;;;;11.37;45.11;102003.56;5026530;28;20132;-54
2022/04/10 08:46:26;;;;;;;3.42;1.20;;;;;;;11.37;45.25;102011.31;5020985;28;20049;-50
2022/04/10 08:48:53;;;;;;;2.25;1.27;;;;;;;11.37;45.40;102013.91;5037423;28;20103;-53
2022/04/10 08:51:20;;;;;;;3.78;1.20;;;;;;;11.37;45.45;102008.75;5049190;28;20051;-54
2022/04/10 08:53:46;;;;;;;2.45;1.13;;;;;;;11.36;45.25;102014.72;5049051;28;20025;-54
2022/04/10 08:56:12;;;;;;;3.65;1.20;;;;;;;11.38;45.54;102009.63;5048575;28;20044;-54
2022/04/10 08:58:37;;;;;;;2.58;1.08;;;;;;;11.39;45.34;102019.13;5040433;28;20037;-55
2022/04/10 09:01:03;;;;;;;2.35;1.20;;;;;;;11.38;45.41;102020.84;5027121;28;20029;-55
2022/04/10 09:03:28;;;;;;;2.45;1.00;;;;;;;11.37;45.50;102016.47;5024529;28;20023;-53
2022/04/10 09:06:04;;;;;;;3.05;1.35;;;;;;;11.39;45.50;102013.97;5031302;28;20120;-55
2022/04/10 09:08:29;;;;;;;3.95;1.27;;;;;;;11.36;45.45;102013.03;5025631;28;20020;-53
2022/04/10 09:11:03;;;;;;;4.28;1.55;;;;;;;11.38;45.53;102014.81;5030176;28;20029;-55
2022/04/10 09:13:37;;;;;;;2.88;1.30;;;;;;;11.39;45.48;102017.44;5024648;28;20493;-54
2022/04/10 09:16:19;;;;;;;1.85;1.05;;;;;;;11.40;45.52;102019.22;5026923;28;20025;-54
2022/04/10 09:18:44;;;;;;;2.90;1.30;;;;;;;11.38;45.57;102017.38;5026498;28;20018;-53
2022/04/10 09:21:09;;;;;;;3.22;1.00;;;;;;;11.38;45.55;102015.69;5020338;28;20014;-53
2022/04/10 09:23:35;;;;;;;3.58;1.25;;;;;;;11.38;45.39;102010.50;5026778;28;20029;-51
2022/04/10 09:26:00;;;;;;;2.70;1.10;;;;;;;11.39;45.60;102022.59;5023956;28;20083;-52
2022/04/10 09:28:46;;;;;;;2.00;1.10;;;;;;;11.41;45.59;102020.97;5027180;28;20024;-54
2022/04/10 09:31:31;;;;;;;2.22;1.30;;;;;;;11.42;45.53;102022.72;5026033;28;20132;-52
2022/04/10 09:33:58;;;;;;;2.20;1.10;;;;;;;11.38;45.51;102015.69;5025761;28;20041;-53
2022/04/10 09:36:33;;;;;;;2.97;1.10;;;;;;;11.40;45.65;102008.91;5025069;28;20082;-54
2022/04/10 09:38:59;;;;;;;3.55;1.00;;;;;;;11.39;45.54;102012.28;5034897;28;20116;-50
2022/04/10 09:41:24;;;;;;;2.85;1.30;;;;;;;11.40;45.54;102010.56;5025884;28;20017;-55
2022/04/10 09:43:50;;;;;;;2.72;1.20;;;;;;;11.42;45.71;102012.41;5026662;28;20035;-54
2022/04/10 09:46:16;;;;;;;2.42;1.30;;;;;;;11.41;45.50;102015.78;5022941;28;20021;-53
2022/04/10 09:48:41;;;;;;;3.50;1.08;;;;;;;11.42;45.66;102007.25;5024705;28;20028;-53
2022/04/10 09:51:10;;;;;;;3.72;1.30;;;;;;;11.42;45.56;102007.25;5030444;28;20030;-54
2022/04/10 09:53:36;;;;;;;1.48;0.93;;;;;;;11.41;45.65;102013.22;5022825;28;20415;-55
2022/04/10 09:56:04;;;;;;;2.80;1.08;;;;;;;11.41;45.72;102020.09;5025295;28;20483;-55
2022/04/10 09:58:33;;;;;;;3.25;1.10;;;;;;;11.42;45.63;102015.00;5026356;28;20442;-54
2022/04/10 10:01:00;;;;;;;2.80;1.15;;;;;;;11.42;45.74;102015.00;5026678;28;20017;-52
2022/04/10 10:03:28;;;;;;;3.42;1.27;;;;;;;11.41;45.70;102014.94;5025125;28;20022;-54
2022/04/10 10:05:55;;;;;;;3.75;1.40;;;;;;;11.42;45.81;102007.25;5027597;28;20122;-55
2022/04/10 10:08:22;;;;;;;2.05;1.08;;;;;;;11.41;45.51;102004.59;5023260;28;20025;-55
2022/04/10 10:10:48;;;;;;;3.50;1.20;;;;;;;11.41;45.70;102018.38;5028413;28;20364;-54
2022/04/10 10:13:14;;;;;;;2.25;0.90;;;;;;;11.40;45.66;102008.91;5036413;28;20458;-52
2022/04/10 10:15:43;;;;;;;2.05;1.02;;;;;;;11.41;45.68;102007.19;5029925;28;20422;-54
2022/04/10 10:18:10;;;;;;;2.53;1.00;;;;;;;11.42;45.57;102007.25;5027422;28;20114;-53
2022/04/10 10:20:36;;;;;;;2.35;1.20;;;;;;;11.44;45.72;102005.63;5025467;28;20409;-54
2022/04/10 10:23:13;;;;;;;2.53;1.00;;;;;;;11.45;45.81;102004.81;5027823;28;20037;-51
2022/04/10 10:26:23;;;;;;;2.72;0.90;;;;;;;11.49;45.88;101998.97;5026579;28;20025;-51
2022/04/10 10:28:48;;;;;;;1.58;0.80;;;;;;;11.44;45.91;101992.72;5022517;28;20021;-52
2022/04/10 10:31:47;;;;;;;2.15;0.75;;;;;;;11.47;45.75;101989.41;5024300;28;20462;-55
2022/04/10 10:34:14;;;;;;;1.92;1.05;;;;;;;11.45;45.97;101996.19;5026033;28;20028;-51
2022/04/10 10:36:39;;;;;;;3.45;1.20;;;;;;;11.44;45.83;102000.47;5024049;28;20018;-52
2022/04/10 10:39:07;;;;;;;2.05;1.00;;;;;;;11.45;46.00;101993.59;5028493;28;20033;-50
2022/04/10 10:41:34;;;;;;;2.33;1.00;;;;;;;11.44;45.72;101995.31;5023456;28;20032;-50
2022/04/10 10:44:24;;;;;;;1.70;1.00;;;;;;;11.48;46.02;101999.78;5024224;28;20014;-51
2022/04/10 10:46:56;;;;;;;2.90;1.13;;;;;;;11.45;46.01;101991.91;5023737;28;20025;-53
2022/04/10 10:49:22;;;;;;;2.25;0.90;;;;;;;11.45;45.95;101999.66;5022431;28;20252;-53
2022/04/10 10:51:50;;;;;;;3.45;1.05;;;;;;;11.45;45.86;101997.06;5032323;28;20022;-53
2022/04/10 10:54:21;;;;;;;4.30;0.98;;;;;;;11.45;45.94;102002.25;5025146;28;20021;-51
2022/04/10 10:56:47;;;;;;;2.60;0.95;;;;;;;11.46;46.01;102001.41;5026834;28;20116;-53
2022/04/10 10:59:21;;;;;;;2.45;0.90;;;;;;;11.48;45.95;102002.38;5029527;28;20067;-50
2022/04/10 11:01:51;;;;;;;1.80;0.80;;;;;;;11.47;45.91;102000.59;5030154;28;20035;-53
2022/04/10 11:04:19;;;;;;;2.22;1.00;;;;;;;11.46;46.02;102000.53;5031245;28;20044;-50
2022/04/10 11:06:47;;;;;;;2.30;0.90;;;;;;;11.47;45.99;101994.56;5028397;28;20519;-54
2022/04/10 11:09:30;;;;;;;2.08;1.00;;;;;;;11.49;45.93;102004.13;5025371;28;20044;-53
2022/04/10 11:11:57;;;;;;;1.73;0.90;;;;;;;11.47;46.09;101995.44;5025627;28;21112;-51
2022/04/10 11:14:38;;;;;;;1.40;0.90;;;;;;;11.50;46.26;102000.75;5031409;28;20048;-51
2022/04/10 11:17:16;;;;;;;2.95;1.25;;;;;;;11.50;46.31;102002.41;5026328;28;20728;-55
2022/04/10 11:20:09;;;;;;;1.90;1.00;;;;;;;11.52;46.24;102004.25;5029679;28;20024;-51
2022/04/10 11:22:48;;;;;;;1.88;0.90;;;;;;;11.49;46.38;102006.72;5027200;28;20084;-53
2022/04/10 11:25:17;;;;;;;1.90;0.98;;;;;;;11.46;46.23;102001.41;5024437;28;20025;-50